createdAt,value
2019-02-25T00:01:01.623Z,53.90
2019-02-25T00:02:17.219Z,53.40
2019-02-25T00:03:22.105Z,53.40
2019-02-25T00:04:27.048Z,53.50
2019-02-25T00:05:31.945Z,53.60
2019-02-25T00:06:36.737Z,53.40
2019-02-25T00:07:42.057Z,53.00
2019-02-25T00:08:47.088Z,53.00
2019-02-25T00:09:52.096Z,52.60
2019-02-25T00:10:56.963Z,53.20
2019-02-25T00:12:01.746Z,53.60
2019-02-25T00:13:09.422Z,53.20
2019-02-25T00:14:17.505Z,53.40
2019-02-25T00:15:22.266Z,53.80
2019-02-25T00:16:27.453Z,53.80
2019-02-25T00:17:32.366Z,54.00
2019-02-25T00:18:37.714Z,54.10
2019-02-25T00:19:42.576Z,54.20
2019-02-25T00:20:47.571Z,54.80
2019-02-25T00:21:52.420Z,55.40
2019-02-25T00:22:57.704Z,55.80
2019-02-25T00:24:07.574Z,55.60
2019-02-25T00:25:12.831Z,55.70
2019-02-25T00:26:17.690Z,55.80
2019-02-25T00:27:22.863Z,56.00
2019-02-25T00:28:27.749Z,56.30
2019-02-25T00:29:32.903Z,56.60
2019-02-25T00:30:37.887Z,56.80
2019-02-25T00:31:47.119Z,56.40
2019-02-25T00:32:52.082Z,56.50
2019-02-25T00:33:56.897Z,56.70
2019-02-25T00:35:01.708Z,56.80
2019-02-25T00:36:07.140Z,57.10
2019-02-25T00:37:12.201Z,57.00
2019-02-25T00:38:17.175Z,56.90
2019-02-25T00:39:22.077Z,57.20
2019-02-25T00:40:30.991Z,57.40
2019-02-25T00:41:35.831Z,57.40
2019-02-25T00:42:41.035Z,57.80
2019-02-25T00:43:45.827Z,58.10
2019-02-25T00:44:52.156Z,58.00
2019-02-25T00:45:57.086Z,58.20
2019-02-25T00:47:01.993Z,58.50
2019-02-25T00:48:06.857Z,58.20
2019-02-25T00:49:12.183Z,58.00
2019-02-25T00:50:17.044Z,58.00
2019-02-25T00:51:22.153Z,58.00
2019-02-25T00:52:27.231Z,58.70
2019-02-25T00:53:32.249Z,58.40
2019-02-25T00:54:37.067Z,58.60
2019-02-25T00:55:42.114Z,58.90
2019-02-25T00:56:47.233Z,58.60
2019-02-25T00:57:52.267Z,58.60
2019-02-25T00:58:58.327Z,58.60
2019-02-25T01:00:03.164Z,58.70
2019-02-25T01:01:07.932Z,58.40
2019-02-25T01:02:13.217Z,58.50
2019-02-25T01:03:18.089Z,58.60
2019-02-25T01:04:23.000Z,59.20
2019-02-25T01:05:27.842Z,59.50
2019-02-25T01:06:32.932Z,59.60
2019-02-25T01:07:38.232Z,60.40
2019-02-25T01:08:43.051Z,61.10
2019-02-25T01:09:47.824Z,61.90
2019-02-25T01:10:52.689Z,62.80
2019-02-25T01:12:02.499Z,63.60
2019-02-25T01:13:07.830Z,64.20
2019-02-25T01:14:12.753Z,65.00
2019-02-25T01:15:17.964Z,64.90
2019-02-25T01:16:22.734Z,65.10
2019-02-25T01:17:27.520Z,65.20
2019-02-25T01:18:32.804Z,65.60
2019-02-25T01:19:37.728Z,66.00
2019-02-25T01:20:42.848Z,67.10
2019-02-25T01:21:47.595Z,66.80
2019-02-25T01:22:52.383Z,66.70
2019-02-25T01:23:57.616Z,65.50
2019-02-25T01:25:02.387Z,65.00
2019-02-25T01:26:07.422Z,65.20
2019-02-25T01:27:12.408Z,65.20
2019-02-25T01:28:17.317Z,65.40
2019-02-25T01:29:22.195Z,64.90
2019-02-25T01:30:27.690Z,64.40
2019-02-25T01:31:32.715Z,64.40
2019-02-25T01:32:37.474Z,64.00
2019-02-25T01:33:42.517Z,63.70
2019-02-25T01:34:47.404Z,63.50
2019-02-25T01:35:52.308Z,63.30
2019-02-25T01:36:57.470Z,63.80
2019-02-25T01:38:02.734Z,64.40
2019-02-25T01:39:08.921Z,64.80
2019-02-25T01:40:13.891Z,64.80
2019-02-25T01:41:18.712Z,65.20
2019-02-25T01:42:24.091Z,65.10
2019-02-25T01:43:28.993Z,65.10
2019-02-25T01:44:34.099Z,64.30
2019-02-25T01:45:39.374Z,64.20
2019-02-25T01:46:44.386Z,63.90
2019-02-25T01:47:49.737Z,64.10
2019-02-25T01:48:55.075Z,64.40
2019-02-25T01:50:00.276Z,65.10
2019-02-25T01:51:05.328Z,65.90
2019-02-25T01:52:10.195Z,66.80
2019-02-25T01:53:15.791Z,68.10
2019-02-25T01:54:21.150Z,69.00
2019-02-25T01:55:27.955Z,69.00
2019-02-25T01:56:32.973Z,68.70
2019-02-25T01:57:38.102Z,67.30
2019-02-25T01:58:43.012Z,67.30
2019-02-25T01:59:48.037Z,67.80
2019-02-25T02:00:53.682Z,67.60
2019-02-25T02:02:02.043Z,66.80
2019-02-25T02:03:07.352Z,65.60
2019-02-25T02:04:12.286Z,66.30
2019-02-25T02:05:17.425Z,66.80
2019-02-25T02:06:25.421Z,67.30
2019-02-25T02:07:30.851Z,67.20
2019-02-25T02:08:35.756Z,66.80
2019-02-25T02:09:40.586Z,66.20
2019-02-25T02:10:46.452Z,65.50
2019-02-25T02:11:51.445Z,66.10
2019-02-25T02:12:56.316Z,66.40
2019-02-25T02:14:01.804Z,67.50
2019-02-25T02:15:08.491Z,68.30
2019-02-25T02:16:13.801Z,69.20
2019-02-25T02:17:19.185Z,69.30
2019-02-25T02:18:24.648Z,70.00
2019-02-25T02:19:29.693Z,70.70
2019-02-25T02:20:35.343Z,71.40
2019-02-25T02:21:40.195Z,72.20
2019-02-25T02:22:45.393Z,72.30
2019-02-25T02:23:50.434Z,72.60
2019-02-25T02:24:55.530Z,72.70
2019-02-25T02:26:01.150Z,72.40
2019-02-25T02:27:06.253Z,71.70
2019-02-25T02:28:11.343Z,72.00
2019-02-25T02:29:16.401Z,71.50
2019-02-25T02:30:21.671Z,70.90
2019-02-25T02:31:26.938Z,70.90
2019-02-25T02:32:31.855Z,70.90
2019-02-25T02:33:37.199Z,70.70
2019-02-25T02:34:45.227Z,70.70
2019-02-25T02:35:50.857Z,70.40
2019-02-25T02:36:56.187Z,70.70
2019-02-25T02:38:01.134Z,70.40
2019-02-25T02:39:07.521Z,70.60
2019-02-25T02:40:13.097Z,70.30
2019-02-25T02:41:18.307Z,69.80
2019-02-25T02:42:23.933Z,69.80
2019-02-25T02:43:29.365Z,69.50
2019-02-25T02:44:35.307Z,69.00
2019-02-25T02:46:20.968Z,68.40
2019-02-25T02:47:41.189Z,68.00
2019-02-25T02:48:52.914Z,67.90
2019-02-25T02:49:58.059Z,67.70
2019-02-25T02:51:03.671Z,68.00
2019-02-25T02:52:08.937Z,67.90
2019-02-25T02:53:13.765Z,67.70
2019-02-25T02:54:18.824Z,67.50
2019-02-25T02:55:24.319Z,67.50
2019-02-25T02:56:29.958Z,67.10
2019-02-25T02:57:35.497Z,67.20
2019-02-25T02:58:40.643Z,66.80
2019-02-25T02:59:45.911Z,66.60
2019-02-25T03:00:50.990Z,66.10
2019-02-25T03:01:56.156Z,65.40
2019-02-25T03:03:01.373Z,63.20
2019-02-25T03:04:06.197Z,62.90
2019-02-25T03:05:13.013Z,63.00
2019-02-25T03:06:17.886Z,63.60
2019-02-25T03:07:23.165Z,63.50
2019-02-25T03:08:28.501Z,62.90
2019-02-25T03:09:33.631Z,61.80
2019-02-25T03:10:59.076Z,60.90
2019-02-25T03:12:04.584Z,60.80
2019-02-25T03:13:09.399Z,59.80
2019-02-25T03:14:14.152Z,59.80
2019-02-25T03:15:21.082Z,59.50
2019-02-25T03:16:27.239Z,59.50
2019-02-25T03:17:32.106Z,59.20
2019-02-25T03:18:36.987Z,59.10
2019-02-25T03:19:43.947Z,58.90
2019-02-25T03:20:50.450Z,59.60
2019-02-25T03:21:55.633Z,59.10
2019-02-25T03:23:00.751Z,59.30
2019-02-25T03:24:05.875Z,59.90
2019-02-25T03:25:13.026Z,60.00
2019-02-25T03:26:18.039Z,60.90
2019-02-25T03:27:23.302Z,62.40
2019-02-25T03:28:28.122Z,61.00
2019-02-25T03:29:33.162Z,60.20
2019-02-25T03:30:39.193Z,61.20
2019-02-25T03:31:44.340Z,62.40
2019-02-25T03:32:49.630Z,62.90
2019-02-25T03:33:55.421Z,63.60
2019-02-25T03:35:00.472Z,64.30
2019-02-25T03:36:05.472Z,65.60
2019-02-25T03:37:10.328Z,65.70
2019-02-25T03:38:18.279Z,65.10
2019-02-25T03:39:26.100Z,65.60
2019-02-25T03:40:33.139Z,66.20
2019-02-25T03:41:38.984Z,67.00
2019-02-25T03:42:46.991Z,67.40
2019-02-25T03:43:51.907Z,68.50
2019-02-25T03:44:56.888Z,68.80
2019-02-25T03:46:02.160Z,68.80
2019-02-25T03:47:07.195Z,69.00
2019-02-25T03:48:16.374Z,68.80
2019-02-25T03:51:28.546Z,68.70
2019-02-25T03:52:38.391Z,68.30
2019-02-25T03:53:46.694Z,69.00
2019-02-25T03:55:06.805Z,69.10
2019-02-25T03:56:12.119Z,69.40
2019-02-25T03:57:16.983Z,70.00
2019-02-25T03:58:22.248Z,70.50
2019-02-25T03:59:27.519Z,71.40
2019-02-25T04:00:32.570Z,71.30
2019-02-25T04:01:38.036Z,70.80
2019-02-25T04:02:42.993Z,70.30
2019-02-25T04:03:49.831Z,69.10
2019-02-25T04:04:55.314Z,68.50
2019-02-25T04:06:01.145Z,68.10
2019-02-25T04:07:06.254Z,67.40
2019-02-25T04:08:10.975Z,67.70
2019-02-25T04:09:15.908Z,67.50
2019-02-25T04:10:20.790Z,67.50
2019-02-25T04:11:26.068Z,67.30
2019-02-25T04:12:32.114Z,67.00
2019-02-25T04:13:37.598Z,66.70
2019-02-25T04:14:42.939Z,66.20
2019-02-25T04:15:48.683Z,66.20
2019-02-25T04:16:54.701Z,68.20
2019-02-25T04:18:00.876Z,68.90
2019-02-25T04:19:05.848Z,69.90
2019-02-25T04:20:13.030Z,70.20
2019-02-25T04:21:20.741Z,70.10
2019-02-25T04:22:25.923Z,70.50
2019-02-25T04:23:30.743Z,70.50
2019-02-25T04:24:36.065Z,70.70
2019-02-25T04:25:40.737Z,70.30
2019-02-25T04:26:45.718Z,70.50
2019-02-25T04:27:51.371Z,70.40
2019-02-25T04:28:56.610Z,69.70
2019-02-25T04:30:01.778Z,69.70
2019-02-25T04:31:06.853Z,69.70
2019-02-25T04:34:19.210Z,70.10
2019-02-25T04:35:24.613Z,68.90
2019-02-25T04:36:29.922Z,69.30
2019-02-25T04:37:35.153Z,69.70
2019-02-25T04:38:39.913Z,70.00
2019-02-25T04:39:44.991Z,70.00
2019-02-25T04:40:55.154Z,69.80
2019-02-25T04:41:59.994Z,69.10
2019-02-25T04:43:06.284Z,68.80
2019-02-25T04:44:11.120Z,68.70
2019-02-25T04:45:17.479Z,68.90
2019-02-25T04:46:22.576Z,68.50
2019-02-25T04:47:27.377Z,68.10
2019-02-25T04:48:32.169Z,68.10
2019-02-25T04:49:37.255Z,68.00
2019-02-25T04:50:43.971Z,67.80
2019-02-25T04:51:48.832Z,67.80
2019-02-25T04:52:53.736Z,67.70
2019-02-25T04:53:58.606Z,67.60
2019-02-25T04:55:04.232Z,67.80
2019-02-25T04:56:09.490Z,68.10
2019-02-25T04:57:14.483Z,68.30
2019-02-25T04:58:19.767Z,68.20
2019-02-25T04:59:25.056Z,67.90
2019-02-25T05:00:30.230Z,67.90
2019-02-25T05:01:35.483Z,67.80
2019-02-25T05:02:40.355Z,67.60
2019-02-25T05:03:45.331Z,67.40
2019-02-25T05:04:50.546Z,67.50
2019-02-25T05:05:55.380Z,67.40
2019-02-25T05:07:00.500Z,68.00
2019-02-25T05:08:05.455Z,68.40
2019-02-25T05:09:10.423Z,68.00
2019-02-25T05:10:15.481Z,67.60
2019-02-25T05:11:22.105Z,67.70
2019-02-25T05:12:27.190Z,68.50
2019-02-25T05:13:35.194Z,68.60
2019-02-25T05:14:40.430Z,68.50
2019-02-25T05:15:45.420Z,68.80
2019-02-25T05:16:50.402Z,68.90
2019-02-25T05:17:55.218Z,69.50
2019-02-25T05:19:07.458Z,69.50
2019-02-25T05:20:13.190Z,69.50
2019-02-25T05:21:18.041Z,69.80
2019-02-25T05:22:25.995Z,69.70
2019-02-25T05:23:30.880Z,69.10
2019-02-25T05:24:35.848Z,70.20
2019-02-25T05:25:40.632Z,71.00
2019-02-25T05:26:47.233Z,70.70
2019-02-25T05:27:55.420Z,70.60
2019-02-25T05:29:00.207Z,69.80
2019-02-25T05:30:05.814Z,70.00
2019-02-25T05:31:10.549Z,69.80
2019-02-25T05:32:15.341Z,70.30
2019-02-25T05:33:20.154Z,70.50
2019-02-25T05:34:25.179Z,70.50
2019-02-25T05:35:30.014Z,70.80
2019-02-25T05:36:35.682Z,71.10
2019-02-25T05:37:40.522Z,71.60
2019-02-25T05:38:45.292Z,72.20
2019-02-25T05:39:50.520Z,72.40
2019-02-25T05:40:55.245Z,73.00
2019-02-25T05:42:00.027Z,72.80
2019-02-25T05:43:05.295Z,72.60
2019-02-25T05:44:10.418Z,72.20
2019-02-25T05:45:15.490Z,72.60
2019-02-25T05:46:20.276Z,73.00
2019-02-25T05:47:25.070Z,73.50
2019-02-25T05:48:29.942Z,74.10
2019-02-25T05:49:36.368Z,75.10
2019-02-25T05:50:41.345Z,75.10
2019-02-25T05:51:46.081Z,75.50
2019-02-25T05:52:51.165Z,76.00
2019-02-25T05:53:56.806Z,76.10
2019-02-25T05:55:02.478Z,76.30
2019-02-25T05:56:08.022Z,77.00
2019-02-25T05:57:12.796Z,77.60
2019-02-25T05:58:17.565Z,78.10
2019-02-25T05:59:22.332Z,78.20
2019-02-25T06:00:27.702Z,78.20
2019-02-25T06:01:33.146Z,77.90
2019-02-25T06:02:37.929Z,78.10
2019-02-25T06:03:42.737Z,78.10
2019-02-25T06:04:47.673Z,78.00
2019-02-25T06:05:57.850Z,78.40
2019-02-25T06:07:03.256Z,78.80
2019-02-25T06:08:08.611Z,78.70
2019-02-25T06:09:14.756Z,78.40
2019-02-25T06:10:20.144Z,78.50
2019-02-25T06:11:25.380Z,78.00
2019-02-25T06:12:31.208Z,77.40
2019-02-25T06:13:36.457Z,77.00
2019-02-25T06:14:41.261Z,76.60
2019-02-25T06:15:46.165Z,76.40
2019-02-25T06:16:50.981Z,76.60
2019-02-25T06:17:57.148Z,76.20
2019-02-25T06:19:03.240Z,76.30
2019-02-25T06:20:11.770Z,76.10
2019-02-25T06:21:16.873Z,76.30
2019-02-25T06:22:25.975Z,76.40
2019-02-25T06:23:31.097Z,76.10
2019-02-25T06:24:36.328Z,75.90
2019-02-25T06:25:41.159Z,75.40
2019-02-25T06:26:46.641Z,75.20
2019-02-25T06:27:51.480Z,75.30
2019-02-25T06:28:56.252Z,74.70
2019-02-25T06:30:33.170Z,74.20
2019-02-25T06:31:39.367Z,74.10
2019-02-25T06:32:44.856Z,73.80
2019-02-25T06:33:50.814Z,73.60
2019-02-25T06:34:55.649Z,73.80
2019-02-25T06:36:00.564Z,73.20
2019-02-25T06:37:05.612Z,73.10
2019-02-25T06:38:10.629Z,72.80
2019-02-25T06:39:16.130Z,72.80
2019-02-25T06:40:23.328Z,72.80
2019-02-25T06:41:28.270Z,73.00
2019-02-25T06:42:33.260Z,73.00
2019-02-25T06:43:38.065Z,73.40
2019-02-25T06:44:42.820Z,73.60
2019-02-25T06:45:47.861Z,74.30
2019-02-25T06:46:52.972Z,73.50
2019-02-25T06:47:57.825Z,72.70
2019-02-25T06:49:03.382Z,72.90
2019-02-25T06:50:08.796Z,73.60
2019-02-25T06:51:14.528Z,73.10
2019-02-25T06:52:20.130Z,72.80
2019-02-25T06:53:24.962Z,72.80
2019-02-25T06:54:32.264Z,73.30
2019-02-25T06:55:37.350Z,73.20
2019-02-25T06:56:42.395Z,73.30
2019-02-25T06:57:52.400Z,73.70
2019-02-25T06:58:57.768Z,73.80
2019-02-25T07:00:04.452Z,74.20
2019-02-25T07:01:13.153Z,74.60
2019-02-25T07:02:18.561Z,74.90
2019-02-25T07:03:24.730Z,75.50
2019-02-25T07:04:49.591Z,76.10
2019-02-25T07:06:19.052Z,75.90
2019-02-25T07:07:32.342Z,76.20
2019-02-25T07:08:47.293Z,76.60
2019-02-25T07:10:14.116Z,77.00
2019-02-25T07:11:27.413Z,77.40
2019-02-25T07:12:51.068Z,78.10
2019-02-25T07:14:21.232Z,78.00
2019-02-25T07:15:37.878Z,77.10
2019-02-25T07:17:07.236Z,76.80
2019-02-25T07:18:29.118Z,76.20
2019-02-25T07:19:48.750Z,77.50
2019-02-25T07:21:06.488Z,77.90
2019-02-25T07:22:48.329Z,78.10
2019-02-25T07:24:04.669Z,78.20
2019-02-25T07:25:49.194Z,77.60
2019-02-25T07:27:10.072Z,76.60
2019-02-25T07:28:32.203Z,76.70
2019-02-25T07:30:04.512Z,76.40
2019-02-25T07:31:19.744Z,76.90
2019-02-25T07:32:42.401Z,75.40
2019-02-25T07:34:06.198Z,75.80
2019-02-25T07:35:40.574Z,75.40
2019-02-25T07:37:10.229Z,75.60
2019-02-25T07:38:27.115Z,76.80
2019-02-25T07:39:54.340Z,76.20
2019-02-25T07:41:13.133Z,75.40
2019-02-25T07:42:36.166Z,75.00
2019-02-25T07:44:06.561Z,75.00
2019-02-25T07:45:51.128Z,74.60
2019-02-25T07:47:24.105Z,74.40
2019-02-25T07:48:47.513Z,74.30
2019-02-25T07:50:06.621Z,74.00
2019-02-25T07:51:35.080Z,73.60
2019-02-25T07:53:01.738Z,74.10
2019-02-25T07:54:25.548Z,73.70
2019-02-25T07:56:02.382Z,73.30
2019-02-25T07:57:16.033Z,72.70
2019-02-25T07:58:54.194Z,72.60
2019-02-25T08:00:28.566Z,72.80
2019-02-25T08:01:45.936Z,73.10
2019-02-25T08:03:17.151Z,71.90
2019-02-25T08:04:34.332Z,71.60
2019-02-25T08:05:58.388Z,71.70
2019-02-25T08:07:22.896Z,71.60
2019-02-25T08:09:04.914Z,71.30
2019-02-25T08:10:29.499Z,73.00
2019-02-25T08:11:54.250Z,73.10
2019-02-25T08:13:21.310Z,72.80
2019-02-25T08:14:48.490Z,71.80
2019-02-25T08:16:16.316Z,71.70
2019-02-25T08:17:33.348Z,71.40
2019-02-25T08:19:09.672Z,72.20
2019-02-25T08:20:40.790Z,71.90
2019-02-25T08:22:13.593Z,71.10
2019-02-25T08:23:42.277Z,71.70
2019-02-25T08:25:24.087Z,71.80
2019-02-25T08:26:58.371Z,72.20
2019-02-25T08:28:32.635Z,71.90
2019-02-25T08:29:57.666Z,73.00
2019-02-25T08:31:18.186Z,73.80
2019-02-25T08:32:41.758Z,72.80
2019-02-25T08:34:08.607Z,72.60
2019-02-25T08:35:55.151Z,72.40
2019-02-25T08:38:09.425Z,72.80
2019-02-25T08:39:34.128Z,72.20
2019-02-25T08:41:15.311Z,72.00
2019-02-25T08:42:37.080Z,71.00
2019-02-25T08:44:01.352Z,71.30
2019-02-25T08:45:18.005Z,71.40
2019-02-25T08:46:39.067Z,72.80
2019-02-25T08:48:02.753Z,73.60
2019-02-25T08:49:20.073Z,73.70
2019-02-25T08:50:25.181Z,72.10
2019-02-25T08:51:34.186Z,71.20
2019-02-25T08:52:42.816Z,69.40
2019-02-25T08:53:48.309Z,69.20
2019-02-25T08:54:53.483Z,69.80
2019-02-25T08:55:59.488Z,71.80
2019-02-25T08:57:08.221Z,73.30
2019-02-25T08:58:16.209Z,73.70
2019-02-25T08:59:22.812Z,73.40
2019-02-25T09:00:37.579Z,72.80
2019-02-25T09:01:42.942Z,70.70
2019-02-25T09:02:48.124Z,72.10
2019-02-25T09:03:54.021Z,72.60
2019-02-25T09:05:00.273Z,72.10
2019-02-25T09:06:11.380Z,73.00
2019-02-25T09:07:21.701Z,73.40
2019-02-25T09:08:31.449Z,72.00
2019-02-25T09:09:36.560Z,70.70
2019-02-25T09:10:44.880Z,70.30
2019-02-25T09:11:53.073Z,69.40
2019-02-25T09:13:01.262Z,64.30
2019-02-25T09:14:13.142Z,63.30
2019-02-25T09:15:16.896Z,61.20
2019-02-25T09:16:25.950Z,62.00
2019-02-25T09:17:31.497Z,61.10
2019-02-25T09:18:36.283Z,63.30
2019-02-25T09:19:42.297Z,64.50
2019-02-25T09:20:49.388Z,64.60
2019-02-25T09:22:01.480Z,61.60
2019-02-25T09:23:06.626Z,60.10
2019-02-25T09:24:11.646Z,64.60
2019-02-25T09:25:22.327Z,64.80
2019-02-25T09:26:36.074Z,59.90
2019-02-25T09:27:47.283Z,56.40
2019-02-25T09:29:03.993Z,55.30
2019-02-25T09:30:13.052Z,55.10
2019-02-25T09:31:32.938Z,57.40
2019-02-25T09:33:13.097Z,57.30
2019-02-25T09:34:19.714Z,56.10
2019-02-25T09:35:25.642Z,57.60
2019-02-25T09:39:21.622Z,54.60
2019-02-25T09:42:45.207Z,48.70
2019-02-25T09:43:50.836Z,47.10
2019-02-25T09:45:22.568Z,46.90
2019-02-25T09:47:21.077Z,45.40
2019-02-25T09:48:51.506Z,44.90
2019-02-25T09:50:27.277Z,42.70
2019-02-25T09:54:34.108Z,41.50
2019-02-25T09:55:59.601Z,41.60
2019-02-25T09:57:57.225Z,41.30
2019-02-25T10:01:28.830Z,42.40
2019-02-25T10:04:59.290Z,42.50
2019-02-25T10:07:15.123Z,41.20
2019-02-25T10:11:12.931Z,43.30
2019-02-25T10:12:25.331Z,44.00
2019-02-25T10:15:49.495Z,44.20
2019-02-25T10:16:56.019Z,46.60
2019-02-25T10:18:01.158Z,46.50
2019-02-25T10:19:06.547Z,46.20
2019-02-25T10:20:23.861Z,46.80
2019-02-25T10:21:30.394Z,46.20
2019-02-25T10:22:38.843Z,46.40
2019-02-25T10:23:44.092Z,46.60
2019-02-25T10:27:27.094Z,52.00
2019-02-25T10:28:46.171Z,47.70
2019-02-25T10:32:14.235Z,47.20
2019-02-25T10:34:02.480Z,47.10
2019-02-25T10:35:34.983Z,47.00
2019-02-25T10:37:05.720Z,48.30
2019-02-25T10:39:09.084Z,48.10
2019-02-25T10:40:22.176Z,49.00
2019-02-25T10:41:55.898Z,48.00
2019-02-25T10:43:13.081Z,48.00
2019-02-25T10:45:13.405Z,50.80
2019-02-25T10:49:10.899Z,51.50
2019-02-25T10:50:26.472Z,51.00
2019-02-25T10:51:35.125Z,49.50
2019-02-25T10:52:44.802Z,50.00
2019-02-25T10:53:51.589Z,49.40
2019-02-25T10:54:58.263Z,50.30
2019-02-25T10:56:34.898Z,49.60
2019-02-25T10:57:41.456Z,52.20
2019-02-25T10:58:52.128Z,52.50
2019-02-25T11:00:13.781Z,51.90
2019-02-25T11:01:24.569Z,52.50
2019-02-25T11:02:50.741Z,53.90
2019-02-25T11:03:58.009Z,53.50
2019-02-25T11:05:10.649Z,51.10
2019-02-25T11:06:18.009Z,50.30
2019-02-25T11:07:28.044Z,50.70
2019-02-25T11:08:46.583Z,51.60
2019-02-25T11:10:16.536Z,51.10
2019-02-25T11:11:27.140Z,52.70
2019-02-25T11:12:32.234Z,52.60
2019-02-25T11:13:38.311Z,51.90
2019-02-25T11:14:44.435Z,51.10
2019-02-25T11:15:50.584Z,51.10
2019-02-25T11:17:00.815Z,52.50
2019-02-25T11:18:31.124Z,52.50
2019-02-25T11:19:33.052Z,52.70
2019-02-25T11:20:43.639Z,54.60
2019-02-25T11:21:59.506Z,52.50
2019-02-25T11:23:23.940Z,52.70
2019-02-25T11:24:34.748Z,52.10
2019-02-25T11:25:56.197Z,51.10
2019-02-25T11:27:20.637Z,50.70
2019-02-25T11:28:31.742Z,51.80
2019-02-25T11:30:11.949Z,50.80
2019-02-25T11:31:38.632Z,50.30
2019-02-25T11:32:55.071Z,50.50
2019-02-25T11:34:01.218Z,50.40
2019-02-25T11:35:10.695Z,50.10
2019-02-25T11:36:20.205Z,50.20
2019-02-25T11:37:28.551Z,51.50
2019-02-25T11:38:37.454Z,50.40
2019-02-25T11:39:42.402Z,50.70
2019-02-25T11:40:53.628Z,50.10
2019-02-25T11:42:03.278Z,49.80
2019-02-25T11:43:13.076Z,51.20
2019-02-25T11:44:30.914Z,50.20
2019-02-25T11:45:39.295Z,50.00
2019-02-25T11:47:00.252Z,50.20
2019-02-25T11:48:17.371Z,49.80
2019-02-25T11:49:33.265Z,50.50
2019-02-25T11:50:56.520Z,49.30
2019-02-25T11:52:03.378Z,48.90
2019-02-25T11:53:08.335Z,49.80
2019-02-25T11:54:15.239Z,50.10
2019-02-25T11:55:22.072Z,48.60
2019-02-25T11:56:27.426Z,46.80
2019-02-25T11:57:36.342Z,46.30
2019-02-25T11:59:28.309Z,46.80
2019-02-25T12:00:39.826Z,46.10
2019-02-25T12:01:52.453Z,44.20
2019-02-25T12:03:15.933Z,42.40
2019-02-25T12:05:05.172Z,39.20
2019-02-25T12:06:16.113Z,36.80
2019-02-25T12:07:30.906Z,34.10
2019-02-25T12:08:56.379Z,32.90
2019-02-25T12:10:03.138Z,30.90
2019-02-25T12:11:18.209Z,29.50
2019-02-25T12:12:23.654Z,28.80
2019-02-25T12:13:35.967Z,28.60
2019-02-25T12:14:54.912Z,28.10
2019-02-25T12:16:15.097Z,27.00
2019-02-25T12:17:22.572Z,26.50
2019-02-25T12:18:27.804Z,26.00
2019-02-25T12:19:32.846Z,25.50
2019-02-25T12:20:38.960Z,25.40
2019-02-25T12:21:47.526Z,24.90
2019-02-25T12:23:07.812Z,24.40
2019-02-25T12:24:27.230Z,24.20
2019-02-25T12:25:40.566Z,24.10
2019-02-25T12:26:58.328Z,23.70
2019-02-25T12:28:12.362Z,23.40
2019-02-25T12:29:18.016Z,23.80
2019-02-25T12:30:24.094Z,22.90
2019-02-25T12:31:31.213Z,23.80
2019-02-25T12:32:39.574Z,22.80
2019-02-25T12:33:44.905Z,22.10
2019-02-25T12:34:52.524Z,22.10
2019-02-25T12:36:01.118Z,21.80
2019-02-25T12:37:09.336Z,21.80
2019-02-25T12:38:20.414Z,22.40
2019-02-25T12:39:32.758Z,21.60
2019-02-25T12:40:42.588Z,21.20
2019-02-25T12:41:48.147Z,21.20
2019-02-25T12:43:15.228Z,21.00
2019-02-25T12:44:21.210Z,21.10
2019-02-25T12:45:44.545Z,21.30
2019-02-25T12:46:59.690Z,21.10
2019-02-25T12:48:22.630Z,20.90
2019-02-25T12:49:27.511Z,20.70
2019-02-25T12:50:48.500Z,21.90
2019-02-25T12:52:05.765Z,20.80
2019-02-25T12:53:40.428Z,20.30
2019-02-25T12:55:50.317Z,20.90
2019-02-25T12:56:55.611Z,20.50
2019-02-25T12:58:01.140Z,20.30
2019-02-25T12:59:43.714Z,20.20
2019-02-25T13:00:58.034Z,20.00
2019-02-25T13:02:47.597Z,20.20
2019-02-25T13:06:32.718Z,20.50
2019-02-25T13:07:44.084Z,20.30
2019-02-25T13:08:52.368Z,21.10
2019-02-25T13:09:57.346Z,20.30
2019-02-25T13:11:09.304Z,20.70
2019-02-25T13:12:14.474Z,21.10
2019-02-25T13:13:38.587Z,21.40
2019-02-25T13:14:44.372Z,20.80
2019-02-25T13:15:53.655Z,20.80
2019-02-25T13:17:01.483Z,21.90
2019-02-25T13:18:06.721Z,20.70
2019-02-25T13:19:13.301Z,20.80
2019-02-25T13:20:22.716Z,20.50
2019-02-25T13:21:31.554Z,20.50
2019-02-25T13:22:37.092Z,20.40
2019-02-25T13:23:54.641Z,20.50
2019-02-25T13:25:00.823Z,21.00
2019-02-25T13:26:07.650Z,21.10
2019-02-25T13:27:25.714Z,21.40
2019-02-25T13:28:57.292Z,21.70
2019-02-25T13:30:19.796Z,21.80
2019-02-25T13:33:51.872Z,22.00
2019-02-25T13:34:57.756Z,23.20
2019-02-25T13:36:05.751Z,23.60
2019-02-25T13:37:15.381Z,23.40
2019-02-25T13:38:22.103Z,23.60
2019-02-25T13:39:29.201Z,23.40
2019-02-25T13:40:35.534Z,23.70
2019-02-25T13:41:43.822Z,24.30
2019-02-25T13:42:51.190Z,24.20
2019-02-25T13:44:02.000Z,24.80
2019-02-25T18:09:20.445Z,57.60
2019-02-25T18:11:41.207Z,58.30
2019-02-25T18:12:56.950Z,58.50
2019-02-25T18:17:31.389Z,59.60
2019-02-25T18:18:47.443Z,59.20
2019-02-25T18:19:56.742Z,60.00
2019-02-25T18:21:49.095Z,60.70
2019-02-25T18:23:26.250Z,60.00
2019-02-25T18:25:34.148Z,60.20
2019-02-25T18:32:32.836Z,62.20
2019-02-25T18:33:38.271Z,63.10
2019-02-25T18:34:44.196Z,61.80
2019-02-25T18:36:23.645Z,61.80
2019-02-25T18:37:35.481Z,63.00
2019-02-25T18:39:07.934Z,64.30
2019-02-25T18:40:19.035Z,64.00
2019-02-25T18:41:28.101Z,64.50
2019-02-25T18:42:45.241Z,64.80
2019-02-25T18:43:56.591Z,65.20
2019-02-25T18:45:37.824Z,65.40
2019-02-25T18:46:44.097Z,64.80
2019-02-25T18:47:53.117Z,64.80
2019-02-25T18:48:59.596Z,65.30
2019-02-25T18:50:08.630Z,64.10
2019-02-25T18:51:13.722Z,66.80
2019-02-25T18:52:22.177Z,67.20
2019-02-25T18:55:08.829Z,65.50
2019-02-25T18:59:20.303Z,67.20
2019-02-25T19:00:35.196Z,66.10
2019-02-25T19:02:01.328Z,65.60
2019-02-25T19:03:12.602Z,66.30
2019-02-25T19:05:41.458Z,65.70
2019-02-25T19:07:07.910Z,65.70
2019-02-25T19:08:29.925Z,65.70
2019-02-25T19:09:49.342Z,66.10
2019-02-25T19:13:20.129Z,65.90
2019-02-25T19:14:38.053Z,66.60
2019-02-25T19:17:01.937Z,66.40
2019-02-25T19:18:06.453Z,67.70
2019-02-25T19:19:17.116Z,67.20
2019-02-25T19:21:50.021Z,66.90
2019-02-25T19:23:02.606Z,67.10
2019-02-25T19:24:11.755Z,67.80
2019-02-25T19:25:25.784Z,68.70
2019-02-25T19:26:39.944Z,68.40
2019-02-25T19:27:50.622Z,69.60
2019-02-25T19:29:01.153Z,69.30
2019-02-25T19:30:17.427Z,69.00
2019-02-25T19:31:27.886Z,69.30
2019-02-25T19:32:45.655Z,70.70
2019-02-25T19:34:10.482Z,71.00
2019-02-25T19:35:17.092Z,70.00
2019-02-25T19:36:41.110Z,70.40
2019-02-25T19:39:04.935Z,70.60
2019-02-25T19:40:22.657Z,71.10
2019-02-25T19:41:31.156Z,71.80
2019-02-25T19:43:03.666Z,72.70
2019-02-25T19:44:10.379Z,72.50
2019-02-25T19:45:53.848Z,72.90
2019-02-25T19:47:25.662Z,73.60
2019-02-25T19:48:38.611Z,73.70
2019-02-25T19:50:21.409Z,74.60
2019-02-25T19:52:14.269Z,74.30
2019-02-25T19:54:45.806Z,74.80
2019-02-25T19:55:58.451Z,75.40
2019-02-25T19:57:08.195Z,76.60
2019-02-25T19:58:14.080Z,76.60
2019-02-25T19:59:24.521Z,76.20
2019-02-25T20:00:33.893Z,76.30
2019-02-25T20:01:41.112Z,77.90
2019-02-25T20:02:54.424Z,77.30
2019-02-25T20:04:25.072Z,77.20
2019-02-25T20:06:15.999Z,77.20
2019-02-25T20:07:25.893Z,78.40
2019-02-25T20:08:34.773Z,77.80
2019-02-25T20:10:03.250Z,77.80
2019-02-25T20:11:10.370Z,78.40
2019-02-25T20:12:20.453Z,78.20
2019-02-25T20:13:28.141Z,78.20
2019-02-25T20:14:42.514Z,79.30
2019-02-25T20:15:53.247Z,79.90
2019-02-25T20:17:02.564Z,79.40
2019-02-25T20:18:09.976Z,79.40
2019-02-25T20:19:20.614Z,79.70
2019-02-25T20:20:38.401Z,79.80
2019-02-25T20:21:48.238Z,80.60
2019-02-25T20:23:01.252Z,80.00
2019-02-25T20:24:14.376Z,80.60
2019-02-25T20:25:29.970Z,80.50
2019-02-25T20:26:32.678Z,80.40
2019-02-25T20:27:39.150Z,80.50
2019-02-25T20:28:50.533Z,80.90
2019-02-25T20:30:03.313Z,81.30
2019-02-25T20:31:19.192Z,81.70
2019-02-25T20:32:33.713Z,83.40
2019-02-25T20:33:39.171Z,82.30
2019-02-25T20:34:49.897Z,82.50
2019-02-25T20:36:08.198Z,82.60
2019-02-25T20:37:13.772Z,82.50
2019-02-25T20:38:26.855Z,83.00
2019-02-25T20:39:46.672Z,83.30
2019-02-25T20:41:07.213Z,83.60
2019-02-25T20:42:28.546Z,84.20
2019-02-25T20:43:44.529Z,84.20
2019-02-25T20:44:55.174Z,84.30